createdAt,value
2023-03-30T00:02:19.698Z,99717.28
2023-03-30T00:04:52.201Z,99722.06
2023-03-30T00:07:21.844Z,99715.22
2023-03-30T00:09:50.300Z,99704.72
2023-03-30T00:12:24.042Z,99703.63
2023-03-30T00:14:54.954Z,99695.44
2023-03-30T00:17:33.428Z,99695.06
2023-03-30T00:20:08.997Z,99689.94
2023-03-30T00:22:39.845Z,99693.88
2023-03-30T00:25:12.072Z,99683.75
2023-03-30T00:27:54.924Z,99683.88
2023-03-30T00:30:27.920Z,99678.47
2023-03-30T00:32:59.424Z,99676.28
2023-03-30T00:35:30.801Z,99675.53
2023-03-30T00:38:06.178Z,99676.88
2023-03-30T00:40:43.349Z,99672.16
2023-03-30T00:43:25.646Z,99683.59
2023-03-30T00:45:59.874Z,99671.69
2023-03-30T00:48:37.034Z,99671.78
2023-03-30T00:51:16.396Z,99662.63
2023-03-30T00:53:49.201Z,99663.00
2023-03-30T00:56:23.415Z,99660.94
2023-03-30T00:59:01.212Z,99676.38
2023-03-30T01:01:39.077Z,99673.34
2023-03-30T01:04:11.280Z,99668.88
2023-03-30T01:06:43.747Z,99665.16
2023-03-30T01:09:15.577Z,99664.03
2023-03-30T01:11:45.094Z,99664.97
2023-03-30T01:14:17.056Z,99661.38
2023-03-30T01:16:52.504Z,99662.75
2023-03-30T01:19:43.857Z,99659.50
2023-03-30T01:22:40.160Z,99655.47
2023-03-30T01:25:39.102Z,99652.25
2023-03-30T01:28:36.455Z,99647.81
2023-03-30T01:31:42.322Z,99651.41
2023-03-30T01:34:36.701Z,99649.81
2023-03-30T01:37:45.111Z,99655.88
2023-03-30T01:40:20.157Z,99650.34
2023-03-30T01:42:59.974Z,99652.72
2023-03-30T01:45:37.296Z,99649.47
2023-03-30T01:48:15.770Z,99651.28
2023-03-30T01:50:52.944Z,99659.88
2023-03-30T01:53:27.368Z,99650.72
2023-03-30T01:56:05.021Z,99657.19
2023-03-30T01:58:37.808Z,99654.69
2023-03-30T02:01:10.370Z,99650.72
2023-03-30T02:03:42.694Z,99654.69
2023-03-30T02:06:24.637Z,99647.22
2023-03-30T02:08:59.454Z,99649.75
2023-03-30T02:11:35.680Z,99648.84
2023-03-30T02:14:13.226Z,99647.56
2023-03-30T02:16:47.892Z,99649.41
2023-03-30T02:19:22.058Z,99632.38
2023-03-30T02:22:07.196Z,99631.78
2023-03-30T02:24:39.158Z,99637.09
2023-03-30T02:27:11.126Z,99646.13
2023-03-30T02:29:43.347Z,99642.72
2023-03-30T02:32:21.158Z,99655.28
2023-03-30T02:35:05.209Z,99647.16
2023-03-30T02:37:48.732Z,99659.50
2023-03-30T02:40:44.423Z,99652.81
2023-03-30T02:43:32.774Z,99640.88
2023-03-30T02:46:32.377Z,99642.84
2023-03-30T02:49:10.989Z,99650.19
2023-03-30T02:51:48.923Z,99648.16
2023-03-30T02:54:31.448Z,99644.56
2023-03-30T02:57:51.725Z,99635.75
2023-03-30T03:00:49.778Z,99636.44
2023-03-30T03:03:29.872Z,99629.44
2023-03-30T03:06:05.579Z,99628.38
2023-03-30T03:08:41.229Z,99624.53
2023-03-30T03:11:25.957Z,99616.09
2023-03-30T03:13:58.352Z,99600.19
2023-03-30T03:16:45.504Z,99591.63
2023-03-30T03:19:22.187Z,99592.94
2023-03-30T03:21:55.918Z,99605.00
2023-03-30T03:24:29.624Z,99599.56
2023-03-30T03:27:17.735Z,99601.97
2023-03-30T03:30:24.416Z,99600.84
2023-03-30T03:33:08.220Z,99602.56
2023-03-30T03:35:39.440Z,99594.41
2023-03-30T03:38:18.835Z,99596.28
2023-03-30T03:40:57.133Z,99597.16
2023-03-30T03:43:34.648Z,99599.56
2023-03-30T03:46:05.757Z,99583.88
2023-03-30T03:48:43.662Z,99598.19
2023-03-30T03:51:15.469Z,99594.72
2023-03-30T03:53:50.014Z,99598.69
2023-03-30T03:56:23.543Z,99588.22
2023-03-30T03:58:54.610Z,99577.84
2023-03-30T04:01:23.709Z,99587.75
2023-03-30T04:04:01.084Z,99580.09
2023-03-30T04:06:30.818Z,99571.56
2023-03-30T04:09:02.191Z,99572.53
2023-03-30T04:12:01.552Z,99566.84
2023-03-30T04:14:50.680Z,99580.63
2023-03-30T04:17:33.860Z,99580.38
2023-03-30T04:20:28.921Z,99577.72
2023-03-30T04:23:23.152Z,99592.38
2023-03-30T04:26:30.510Z,99592.38
2023-03-30T04:29:21.271Z,99595.78
2023-03-30T04:32:21.330Z,99591.34
2023-03-30T04:35:12.809Z,99593.59
2023-03-30T04:38:22.230Z,99582.88
2023-03-30T04:41:17.908Z,99575.16
2023-03-30T04:43:49.618Z,99567.47
2023-03-30T04:46:42.422Z,99547.94
2023-03-30T04:49:47.732Z,99542.25
2023-03-30T04:52:47.437Z,99553.47
2023-03-30T04:55:37.149Z,99568.19
2023-03-30T04:58:38.387Z,99562.41
2023-03-30T05:01:45.652Z,99562.19
2023-03-30T05:04:44.202Z,99569.84
2023-03-30T05:07:32.378Z,99559.53
2023-03-30T05:10:21.884Z,99553.88
2023-03-30T05:13:25.382Z,99559.50
2023-03-30T05:16:22.540Z,99548.91
2023-03-30T05:19:09.687Z,99547.31
2023-03-30T05:21:53.941Z,99546.00
2023-03-30T05:24:41.686Z,99535.63
2023-03-30T05:27:36.468Z,99536.50
2023-03-30T05:30:31.056Z,99544.31
2023-03-30T05:33:25.805Z,99551.34
2023-03-30T05:36:19.985Z,99561.66
2023-03-30T05:39:14.600Z,99560.69
2023-03-30T05:42:01.997Z,99568.69
2023-03-30T05:45:10.900Z,99548.56
2023-03-30T05:48:08.888Z,99557.13
2023-03-30T05:50:40.849Z,99552.31
2023-03-30T05:53:16.057Z,99540.38
2023-03-30T05:56:23.024Z,99539.13
2023-03-30T05:59:16.714Z,99543.97
2023-03-30T06:02:19.952Z,99540.88
2023-03-30T06:04:56.038Z,99544.09
2023-03-30T06:07:25.971Z,99545.31
2023-03-30T06:09:59.694Z,99543.75
2023-03-30T06:12:31.927Z,99548.06
2023-03-30T06:15:02.671Z,99547.50
2023-03-30T06:18:06.682Z,99533.38
2023-03-30T06:20:41.150Z,99536.75
2023-03-30T06:23:11.580Z,99520.22
2023-03-30T06:25:44.826Z,99524.81
2023-03-30T06:28:16.108Z,99521.63
2023-03-30T06:30:49.137Z,99522.81
2023-03-30T06:33:26.118Z,99524.66
2023-03-30T06:36:12.046Z,99525.88
2023-03-30T06:38:48.562Z,99527.66
2023-03-30T06:41:28.016Z,99525.69
2023-03-30T06:43:58.740Z,99518.22
2023-03-30T06:46:36.061Z,99513.00
2023-03-30T06:49:05.183Z,99516.56
2023-03-30T06:51:54.755Z,99520.19
2023-03-30T06:54:24.814Z,99524.84
2023-03-30T06:57:08.504Z,99535.75
2023-03-30T06:59:40.680Z,99529.22
2023-03-30T07:02:33.297Z,99533.59
2023-03-30T07:05:25.960Z,99539.47
2023-03-30T07:08:19.653Z,99532.06
2023-03-30T07:10:54.861Z,99536.38
2023-03-30T07:13:29.992Z,99530.63
2023-03-30T07:16:04.004Z,99537.28
2023-03-30T07:18:44.880Z,99520.25
2023-03-30T07:21:22.743Z,99533.41
2023-03-30T07:24:02.135Z,99541.38
2023-03-30T07:26:41.206Z,99527.78
2023-03-30T07:29:20.818Z,99529.25
2023-03-30T07:32:07.188Z,99535.00
2023-03-30T07:34:42.545Z,99518.09
2023-03-30T07:37:20.676Z,99512.56
2023-03-30T07:40:08.176Z,99514.84
2023-03-30T07:42:58.543Z,99518.28
2023-03-30T07:45:30.522Z,99514.63
2023-03-30T07:48:02.431Z,99520.38
2023-03-30T07:50:33.263Z,99533.50
2023-03-30T07:53:05.857Z,99522.84
2023-03-30T07:55:43.756Z,99533.63
2023-03-30T07:58:22.649Z,99522.91
2023-03-30T08:00:54.661Z,99515.13
2023-03-30T08:03:48.447Z,99515.34
2023-03-30T08:06:22.756Z,99517.03
2023-03-30T08:09:04.780Z,99522.41
2023-03-30T08:11:39.990Z,99529.84
2023-03-30T08:14:17.587Z,99541.97
2023-03-30T08:16:45.898Z,99527.66
2023-03-30T08:19:15.849Z,99538.72
2023-03-30T08:21:52.233Z,99535.91
2023-03-30T08:24:20.979Z,99524.75
2023-03-30T08:26:56.413Z,99522.97
2023-03-30T08:29:34.227Z,99536.88
2023-03-30T08:32:03.538Z,99531.25
2023-03-30T08:34:34.333Z,99515.16
2023-03-30T08:37:05.684Z,99513.72
2023-03-30T08:39:39.660Z,99507.81
2023-03-30T08:42:18.474Z,99516.66
2023-03-30T08:44:55.712Z,99515.66
2023-03-30T08:47:33.649Z,99507.00
2023-03-30T08:50:14.270Z,99508.91
2023-03-30T08:52:55.771Z,99508.22
2023-03-30T08:55:35.351Z,99506.25
2023-03-30T08:58:18.797Z,99517.06
2023-03-30T09:00:57.050Z,99506.53
2023-03-30T09:03:33.902Z,99497.28
2023-03-30T09:06:09.277Z,99511.63
2023-03-30T09:08:40.706Z,99504.19
2023-03-30T09:11:13.274Z,99510.50
2023-03-30T09:13:46.475Z,99488.34
2023-03-30T09:16:21.675Z,99506.94
2023-03-30T09:18:52.630Z,99497.53
2023-03-30T09:21:31.588Z,99503.97
2023-03-30T09:24:02.321Z,99484.03
2023-03-30T09:26:39.754Z,99495.47
2023-03-30T09:29:18.319Z,99479.09
2023-03-30T09:31:53.456Z,99485.34
2023-03-30T09:34:30.917Z,99474.56
2023-03-30T09:37:04.920Z,99479.16
2023-03-30T09:39:38.482Z,99463.97
2023-03-30T09:42:37.337Z,99470.69
2023-03-30T09:45:23.341Z,99474.50
2023-03-30T09:47:55.223Z,99466.34
2023-03-30T09:50:29.408Z,99471.91
2023-03-30T09:53:04.461Z,99466.28
2023-03-30T09:55:34.642Z,99453.00
2023-03-30T09:58:17.628Z,99461.59
2023-03-30T10:00:57.360Z,99452.63
2023-03-30T10:03:29.625Z,99455.31
2023-03-30T10:06:07.548Z,99432.13
2023-03-30T10:08:52.424Z,99436.16
2023-03-30T10:11:26.904Z,99440.63
2023-03-30T10:13:58.217Z,99438.50
2023-03-30T10:16:35.223Z,99428.34
2023-03-30T10:19:21.213Z,99423.53
2023-03-30T10:22:05.563Z,99420.44
2023-03-30T10:24:37.393Z,99421.28
2023-03-30T10:27:11.631Z,99414.00
2023-03-30T10:29:46.706Z,99407.78
2023-03-30T10:32:20.910Z,99398.44
2023-03-30T10:34:56.663Z,99393.69
2023-03-30T10:37:31.248Z,99395.81
2023-03-30T10:40:06.541Z,99391.38
2023-03-30T10:42:37.584Z,99389.16
2023-03-30T10:45:10.937Z,99373.75
2023-03-30T10:47:53.980Z,99369.00
2023-03-30T10:50:32.737Z,99365.78
2023-03-30T10:53:13.625Z,99366.63
2023-03-30T10:55:48.738Z,99359.28
2023-03-30T10:58:27.619Z,99360.75
2023-03-30T11:01:12.982Z,99362.66
2023-03-30T11:03:50.184Z,99355.41
2023-03-30T11:06:27.481Z,99345.88
2023-03-30T11:08:59.529Z,99347.38
2023-03-30T11:11:37.579Z,99345.47
2023-03-30T11:14:10.162Z,99350.28
2023-03-30T11:16:47.715Z,99350.09
2023-03-30T11:19:25.964Z,99352.97
2023-03-30T11:21:59.536Z,99339.56
2023-03-30T11:24:31.549Z,99341.50
2023-03-30T11:27:05.409Z,99335.59
2023-03-30T11:29:40.807Z,99344.41
2023-03-30T11:32:17.554Z,99330.19
2023-03-30T11:34:58.682Z,99334.63
2023-03-30T11:37:37.738Z,99331.22
2023-03-30T11:40:18.609Z,99320.50
2023-03-30T11:42:51.367Z,99307.91
2023-03-30T11:45:40.009Z,99320.03
2023-03-30T11:48:32.084Z,99313.91
2023-03-30T11:51:21.614Z,99310.78
2023-03-30T11:53:58.632Z,99306.31
2023-03-30T11:56:39.905Z,99288.06
2023-03-30T12:02:13.992Z,99250.06
2023-03-30T12:04:48.577Z,99236.78
2023-03-30T12:07:34.896Z,99227.94
2023-03-30T12:10:08.372Z,99227.50
2023-03-30T12:12:40.443Z,99215.28
2023-03-30T12:15:27.218Z,99210.78
2023-03-30T12:18:01.718Z,99201.22
2023-03-30T12:20:39.495Z,99196.16
2023-03-30T12:23:32.324Z,99192.84
2023-03-30T12:26:16.366Z,99188.66
2023-03-30T12:29:15.283Z,99172.78
2023-03-30T12:32:11.202Z,99167.59
2023-03-30T12:34:47.582Z,99159.19
2023-03-30T12:37:26.764Z,99160.72
2023-03-30T12:40:06.963Z,99143.59
2023-03-30T12:42:46.516Z,99149.63
2023-03-30T12:45:37.568Z,99131.94
2023-03-30T12:48:24.387Z,99141.13
2023-03-30T12:51:10.508Z,99128.25
2023-03-30T12:53:56.228Z,99126.78
2023-03-30T12:56:41.781Z,99125.28
2023-03-30T12:59:45.786Z,99136.00
2023-03-30T13:02:43.538Z,99126.78
2023-03-30T13:05:28.550Z,99111.19
2023-03-30T13:07:57.258Z,99116.09
2023-03-30T13:10:42.710Z,99130.63
2023-03-30T13:13:27.970Z,99098.50
2023-03-30T13:15:58.778Z,99085.44
2023-03-30T13:18:58.485Z,99091.31
2023-03-30T13:21:28.124Z,99096.13
2023-03-30T13:24:03.426Z,99102.13
2023-03-30T13:26:54.169Z,99096.31
2023-03-30T13:29:33.482Z,99081.94
2023-03-30T13:32:16.515Z,99085.78
2023-03-30T13:35:06.810Z,99087.13
2023-03-30T13:38:19.711Z,99086.75
2023-03-30T13:41:04.466Z,99091.94
2023-03-30T13:43:48.406Z,99097.28
2023-03-30T13:46:33.020Z,99106.47
2023-03-30T13:49:24.067Z,99104.94
2023-03-30T13:51:55.822Z,99099.09
2023-03-30T13:54:27.724Z,99080.03
2023-03-30T13:57:00.746Z,99078.69
2023-03-30T13:59:35.464Z,99068.34
2023-03-30T14:02:12.384Z,99067.50
2023-03-30T14:04:48.403Z,99067.81
2023-03-30T14:07:22.648Z,99053.31
2023-03-30T14:10:16.698Z,99050.97
2023-03-30T14:12:49.668Z,99049.78
2023-03-30T14:15:21.615Z,99048.94
2023-03-30T14:17:57.246Z,99061.66
2023-03-30T14:20:41.230Z,99059.97
2023-03-30T14:23:18.848Z,99055.13
2023-03-30T14:25:48.365Z,99053.47
2023-03-30T14:28:28.768Z,99048.94
2023-03-30T14:31:06.114Z,99045.28
2023-03-30T14:33:44.357Z,99058.13
2023-03-30T14:36:24.240Z,99057.81
2023-03-30T14:38:56.270Z,99056.31
2023-03-30T14:41:27.995Z,99075.03
2023-03-30T14:44:01.970Z,99068.50
2023-03-30T14:46:37.504Z,99049.13
2023-03-30T14:49:08.467Z,99058.84
2023-03-30T14:51:41.552Z,99053.31
2023-03-30T14:54:15.785Z,99058.50
2023-03-30T14:56:54.778Z,99049.81
2023-03-30T14:59:33.070Z,99051.16
2023-03-30T15:02:11.927Z,99049.78
2023-03-30T15:04:47.953Z,99049.31
2023-03-30T15:07:20.512Z,99036.78
2023-03-30T15:09:58.993Z,99031.75
2023-03-30T15:12:29.776Z,99033.41
2023-03-30T15:15:02.777Z,99024.38
2023-03-30T15:17:33.825Z,99029.91
2023-03-30T15:20:07.568Z,99038.09
2023-03-30T15:22:42.185Z,99046.44
2023-03-30T15:25:17.478Z,99066.34
2023-03-30T15:27:56.565Z,99073.69
2023-03-30T15:30:30.548Z,99073.53
2023-03-30T15:33:09.386Z,99091.59
2023-03-30T15:35:48.980Z,99079.38
2023-03-30T15:38:22.530Z,99086.06
2023-03-30T15:40:53.842Z,99086.22
2023-03-30T15:43:28.133Z,99093.06
2023-03-30T15:46:01.159Z,99089.88
2023-03-30T15:48:40.374Z,99086.06
2023-03-30T15:51:14.879Z,99082.88
2023-03-30T15:53:54.459Z,99085.69
2023-03-30T15:56:34.934Z,99090.03
2023-03-30T15:59:05.963Z,99090.84
2023-03-30T16:01:47.497Z,99108.41
2023-03-30T16:04:26.020Z,99115.59
2023-03-30T16:07:13.467Z,99137.63
2023-03-30T16:09:44.346Z,99132.13
2023-03-30T16:12:16.355Z,99131.19
2023-03-30T16:14:46.819Z,99145.19
2023-03-30T16:17:21.269Z,99133.47
2023-03-30T16:19:53.208Z,99113.69
2023-03-30T16:22:26.660Z,99101.53
2023-03-30T16:25:01.826Z,99074.94
2023-03-30T16:27:40.131Z,99091.66
2023-03-30T16:30:19.639Z,99095.03
2023-03-30T16:32:54.642Z,99106.41
2023-03-30T16:35:26.334Z,99110.81
2023-03-30T16:38:01.976Z,99102.63
2023-03-30T16:40:33.284Z,99119.34
2023-03-30T16:43:09.485Z,99117.38
2023-03-30T16:45:46.684Z,99107.66
2023-03-30T16:48:30.855Z,99097.81
2023-03-30T16:51:10.849Z,99096.13
2023-03-30T16:53:47.753Z,99093.78
2023-03-30T16:56:22.190Z,99108.69
2023-03-30T16:58:53.063Z,99106.38
2023-03-30T17:01:23.318Z,99103.03
2023-03-30T17:03:53.590Z,99104.34
2023-03-30T17:06:34.546Z,99114.22
2023-03-30T17:09:17.653Z,99098.63
2023-03-30T17:11:50.678Z,99110.56
2023-03-30T17:14:34.782Z,99107.00
2023-03-30T17:17:16.258Z,99121.44
2023-03-30T17:19:56.826Z,99116.72
2023-03-30T17:22:34.945Z,99132.44
2023-03-30T17:25:10.568Z,99148.66
2023-03-30T17:27:47.975Z,99139.66
2023-03-30T17:30:21.690Z,99137.31
2023-03-30T17:32:52.462Z,99157.38
2023-03-30T17:35:23.968Z,99167.41
2023-03-30T17:38:17.422Z,99152.19
2023-03-30T17:41:14.516Z,99166.59
2023-03-30T17:43:49.092Z,99140.50
2023-03-30T17:46:19.938Z,99153.38
2023-03-30T17:48:59.671Z,99159.22
2023-03-30T17:51:39.456Z,99137.63
2023-03-30T17:54:20.268Z,99145.16
2023-03-30T17:57:09.691Z,99148.00
2023-03-30T18:00:09.462Z,99132.78
2023-03-30T18:02:40.617Z,99116.53
2023-03-30T18:05:21.052Z,99129.28
2023-03-30T18:07:54.441Z,99127.25
2023-03-30T18:10:27.587Z,99114.50
2023-03-30T18:13:08.018Z,99132.59
2023-03-30T18:15:52.229Z,99140.97
2023-03-30T18:18:36.621Z,99141.31
2023-03-30T18:21:13.637Z,99161.56
2023-03-30T18:23:54.403Z,99147.69
2023-03-30T18:26:39.673Z,99148.00
2023-03-30T18:29:23.531Z,99150.84
2023-03-30T18:31:54.015Z,99157.06
2023-03-30T18:34:36.604Z,99168.94
2023-03-30T18:37:15.790Z,99162.25
2023-03-30T18:39:57.706Z,99156.19
2023-03-30T18:42:34.978Z,99163.41
2023-03-30T18:45:19.172Z,99141.81
2023-03-30T18:47:53.222Z,99152.84
2023-03-30T18:50:45.627Z,99123.91
2023-03-30T18:53:40.506Z,99131.63
2023-03-30T18:56:15.490Z,99120.06
2023-03-30T18:58:55.581Z,99099.34
2023-03-30T19:01:27.772Z,99122.91
2023-03-30T19:04:17.658Z,99132.78
2023-03-30T19:06:58.691Z,99131.09
2023-03-30T19:09:42.484Z,99125.91
2023-03-30T19:12:27.847Z,99122.56
2023-03-30T19:15:17.853Z,99132.78
2023-03-30T19:18:09.903Z,99128.13
2023-03-30T19:20:44.824Z,99125.25
2023-03-30T19:23:18.726Z,99124.25
2023-03-30T19:25:59.152Z,99110.22
2023-03-30T19:28:31.710Z,99117.88
2023-03-30T19:31:21.582Z,99123.09
2023-03-30T19:34:12.272Z,99124.63
2023-03-30T19:36:50.441Z,99127.94
2023-03-30T19:39:33.105Z,99134.97
2023-03-30T19:42:08.792Z,99123.94
2023-03-30T19:44:46.939Z,99125.94
2023-03-30T19:47:20.306Z,99126.59
2023-03-30T19:49:57.456Z,99132.13
2023-03-30T19:52:31.505Z,99133.28
2023-03-30T19:55:13.030Z,99136.00
2023-03-30T19:57:48.253Z,99139.34
2023-03-30T20:00:20.817Z,99154.56
2023-03-30T20:03:04.345Z,99152.19
2023-03-30T20:05:36.073Z,99153.69
2023-03-30T20:08:22.952Z,99166.09
2023-03-30T20:11:07.550Z,99163.72
2023-03-30T20:13:46.470Z,99165.72
2023-03-30T20:16:25.996Z,99169.41
2023-03-30T20:18:58.232Z,99169.06
2023-03-30T20:21:37.540Z,99169.78
2023-03-30T20:24:09.892Z,99171.47
2023-03-30T20:26:49.785Z,99163.53
2023-03-30T20:29:23.868Z,99162.53
2023-03-30T20:31:53.230Z,99180.81
2023-03-30T20:34:28.488Z,99176.44
2023-03-30T20:37:02.641Z,99179.16
2023-03-30T20:39:31.458Z,99177.97
2023-03-30T20:42:02.728Z,99184.19
2023-03-30T20:44:32.511Z,99198.41
2023-03-30T20:47:05.511Z,99184.50
2023-03-30T20:49:42.042Z,99172.28
2023-03-30T20:52:12.864Z,99179.59
2023-03-30T20:54:44.827Z,99187.28
2023-03-30T20:57:21.879Z,99178.59
2023-03-30T20:59:53.505Z,99209.69
2023-03-30T21:02:21.633Z,99201.53
2023-03-30T21:04:52.663Z,99191.66
2023-03-30T21:07:27.837Z,99214.47
2023-03-30T21:09:57.153Z,99210.94
2023-03-30T21:12:29.976Z,99232.38
2023-03-30T21:15:01.779Z,99228.88
2023-03-30T21:17:31.060Z,99230.03
2023-03-30T21:20:01.444Z,99225.19
2023-03-30T21:22:33.260Z,99216.47
2023-03-30T21:25:02.216Z,99222.16
2023-03-30T21:27:31.933Z,99240.56
2023-03-30T21:30:04.603Z,99218.31
2023-03-30T21:32:33.932Z,99216.47
2023-03-30T21:35:05.644Z,99214.94
2023-03-30T21:37:36.579Z,99217.63
2023-03-30T21:40:05.972Z,99211.63
2023-03-30T21:42:40.530Z,99193.16
2023-03-30T21:45:22.858Z,99206.69
2023-03-30T21:47:56.881Z,99212.91
2023-03-30T21:50:28.830Z,99200.19
2023-03-30T21:53:04.998Z,99202.88
2023-03-30T21:55:33.257Z,99199.31
2023-03-30T21:58:03.982Z,99215.91
2023-03-30T22:00:35.596Z,99224.38
2023-03-30T22:03:05.129Z,99224.09
2023-03-30T22:05:47.344Z,99225.56
2023-03-30T22:08:27.415Z,99226.94
2023-03-30T22:11:04.986Z,99228.03
2023-03-30T22:13:36.676Z,99210.84
2023-03-30T22:16:08.594Z,99215.50
2023-03-30T22:18:39.342Z,99215.50
2023-03-30T22:21:15.691Z,99219.38
2023-03-30T22:23:59.355Z,99206.78
2023-03-30T22:26:37.348Z,99208.81
2023-03-30T22:29:14.471Z,99212.78
2023-03-30T22:31:45.466Z,99208.97
2023-03-30T22:34:15.003Z,99192.88
2023-03-30T22:36:44.000Z,99194.06
2023-03-30T22:39:21.540Z,99208.09
2023-03-30T22:41:53.818Z,99190.72
2023-03-30T22:44:24.393Z,99183.84
2023-03-30T22:46:55.035Z,99189.56
2023-03-30T22:49:27.624Z,99196.56
2023-03-30T22:51:56.699Z,99207.69
2023-03-30T22:54:42.307Z,99180.63
2023-03-30T22:57:14.413Z,99195.38
2023-03-30T22:59:54.591Z,99191.34
2023-03-30T23:02:33.689Z,99181.16
2023-03-30T23:05:08.806Z,99173.66
2023-03-30T23:07:40.621Z,99158.75
2023-03-30T23:10:25.545Z,99167.44
2023-03-30T23:12:54.199Z,99157.75
2023-03-30T23:15:23.697Z,99159.75
2023-03-30T23:17:52.218Z,99146.31
2023-03-30T23:20:23.326Z,99145.81
2023-03-30T23:22:57.021Z,99145.75
2023-03-30T23:25:32.067Z,99150.50
2023-03-30T23:28:03.514Z,99152.19
2023-03-30T23:30:44.988Z,99144.78
2023-03-30T23:33:13.974Z,99140.16
2023-03-30T23:35:53.483Z,99146.28
2023-03-30T23:38:23.788Z,99146.59
2023-03-30T23:41:02.776Z,99161.63
2023-03-30T23:43:31.674Z,99137.09
2023-03-30T23:46:05.172Z,99142.75
2023-03-30T23:48:34.102Z,99142.75
2023-03-30T23:51:06.037Z,99150.13
2023-03-30T23:53:40.579Z,99145.75
2023-03-30T23:56:14.091Z,99148.56
2023-03-30T23:58:43.394Z,99128.00
